Time;durP1;ratioP1;P1;durP2;ratioP2;P2;SDS_P1;SDS_P2;PMS_P1;PMS_P2;Temp;Humidity;BMP_temperature;BMP_pressure;BME280_temperature;BME280_humidity;BME280_pressure;Samples;Min_cycle;Max_cycle;Signal;HPM_P1;HPM_P2
2023/01/25 00:01:03;;;;;;;19.55;13.82;;;3.40;1.00;;;;;;6152221;23;20310;-81
2023/01/25 00:03:30;;;;;;;24.88;15.70;;;3.40;1.00;;;;;;6164903;23;20695;-81
2023/01/25 00:06:02;;;;;;;22.83;13.77;;;3.30;1.00;;;;;;6165275;23;20222;-80
2023/01/25 00:08:29;;;;;;;21.73;15.27;;;3.40;1.00;;;;;;6165527;23;20211;-82
2023/01/25 00:10:56;;;;;;;21.17;13.68;;;3.40;1.00;;;;;;6163273;23;20705;-82
2023/01/25 00:13:23;;;;;;;21.90;15.00;;;3.40;1.00;;;;;;6163977;23;20290;-81
2023/01/25 00:15:52;;;;;;;22.20;15.75;;;3.40;1.00;;;;;;6164248;23;20209;-81
2023/01/25 00:18:20;;;;;;;24.05;15.75;;;3.40;1.00;;;;;;6164267;23;20227;-82
2023/01/25 00:20:47;;;;;;;23.10;14.93;;;3.30;1.00;;;;;;6165408;23;20210;-81
2023/01/25 00:23:15;;;;;;;20.65;14.15;;;3.30;1.00;;;;;;6166107;23;20207;-80
2023/01/25 00:25:42;;;;;;;27.38;16.45;;;3.40;1.00;;;;;;6164356;23;20221;-82
2023/01/25 00:28:09;;;;;;;26.15;16.75;;;3.40;1.00;;;;;;6163261;23;20220;-82
2023/01/25 00:30:36;;;;;;;20.30;14.30;;;3.40;1.00;;;;;;6164357;23;20218;-82
2023/01/25 00:33:26;;;;;;;24.45;14.30;;;3.40;1.00;;;;;;6165578;23;20293;-81
2023/01/25 00:35:56;;;;;;;19.52;13.55;;;3.30;1.00;;;;;;6165161;23;20898;-82
2023/01/25 00:38:30;;;;;;;22.80;15.30;;;3.30;1.00;;;;;;6165703;23;20289;-81
2023/01/25 00:41:00;;;;;;;24.08;14.68;;;3.20;1.00;;;;;;6165918;23;20278;-81
2023/01/25 00:43:27;;;;;;;21.55;13.95;;;3.30;1.00;;;;;;6166871;23;21161;-81
2023/01/25 00:46:00;;;;;;;21.77;14.00;;;3.30;1.00;;;;;;6164848;23;20290;-82
2023/01/25 00:48:27;;;;;;;21.95;15.57;;;3.30;1.00;;;;;;6163958;23;20898;-83
2023/01/25 00:50:54;;;;;;;22.33;14.20;;;3.40;1.00;;;;;;6164459;23;20207;-81
2023/01/25 00:53:20;;;;;;;23.02;13.98;;;3.40;1.00;;;;;;6165538;23;20230;-82
2023/01/25 00:55:53;;;;;;;21.52;14.82;;;3.50;1.00;;;;;;6164023;23;20223;-82
2023/01/25 00:58:22;;;;;;;22.60;15.15;;;3.50;1.00;;;;;;6163842;23;20217;-81
2023/01/25 01:00:49;;;;;;;22.33;13.48;;;3.40;1.00;;;;;;6149666;23;20890;-83
2023/01/25 01:03:18;;;;;;;24.58;15.20;;;3.30;1.00;;;;;;6133815;23;20275;-83
2023/01/25 01:05:45;;;;;;;22.45;14.80;;;3.40;1.00;;;;;;6134715;23;20294;-81
2023/01/25 01:08:12;;;;;;;22.38;14.93;;;3.40;1.00;;;;;;6135186;23;20246;-83
2023/01/25 01:10:39;;;;;;;21.40;15.27;;;3.40;1.00;;;;;;6134032;23;20215;-81
2023/01/25 01:13:07;;;;;;;26.17;17.08;;;3.50;1.00;;;;;;6136787;23;20204;-83
2023/01/25 01:22:18;;;;;;;20.65;14.43;;;3.50;1.00;;;;;;6137322;23;20204;-82
2023/01/25 01:24:47;;;;;;;24.63;16.30;;;3.60;1.00;;;;;;6136840;23;20238;-81
2023/01/25 01:27:14;;;;;;;26.52;16.67;;;3.70;1.00;;;;;;6137984;23;20394;-82
2023/01/25 01:29:43;;;;;;;22.58;15.80;;;3.70;1.00;;;;;;6138110;23;20984;-81
2023/01/25 01:32:09;;;;;;;23.05;15.55;;;3.60;1.00;;;;;;6138069;23;20240;-81
2023/01/25 01:34:37;;;;;;;22.65;14.98;;;3.60;1.00;;;;;;6138319;23;20900;-82
2023/01/25 01:37:04;;;;;;;24.65;16.58;;;3.60;1.00;;;;;;6137552;23;20219;-81
2023/01/25 01:39:31;;;;;;;22.10;14.30;;;3.50;1.00;;;;;;6136874;23;20219;-81
2023/01/25 01:41:58;;;;;;;24.50;15.32;;;3.50;1.00;;;;;;6137142;23;20776;-81
2023/01/25 01:44:49;;;;;;;22.40;15.82;;;3.50;1.00;;;;;;6137860;23;20218;-81
2023/01/25 01:47:20;;;;;;;23.70;15.43;;;3.50;1.00;;;;;;6134193;23;20219;-82
2023/01/25 01:49:52;;;;;;;22.52;16.02;;;3.50;1.00;;;;;;6133709;23;20241;-81
2023/01/25 01:52:23;;;;;;;21.98;16.15;;;3.50;1.00;;;;;;6134868;23;20287;-83
2023/01/25 01:54:55;;;;;;;25.65;16.23;;;3.60;1.00;;;;;;6133980;23;20218;-81
2023/01/25 01:57:26;;;;;;;26.98;17.10;;;3.70;1.00;;;;;;6134661;23;20686;-81
2023/01/25 02:00:03;;;;;;;24.50;14.77;;;3.70;1.00;;;;;;6134165;23;20211;-82
2023/01/25 02:02:30;;;;;;;23.67;15.98;;;3.60;1.00;;;;;;6135240;23;20211;-82
2023/01/25 02:05:02;;;;;;;23.60;16.05;;;3.50;1.00;;;;;;6134548;23;20723;-81
2023/01/25 02:07:34;;;;;;;25.48;15.98;;;3.50;1.00;;;;;;6135528;23;21472;-81
2023/01/25 02:10:02;;;;;;;22.65;15.68;;;3.60;1.00;;;;;;6134847;23;20230;-80
2023/01/25 02:12:30;;;;;;;24.85;15.93;;;3.60;1.00;;;;;;6136230;23;20630;-81
2023/01/25 02:14:58;;;;;;;23.20;16.17;;;3.60;1.00;;;;;;6136399;23;20215;-82
2023/01/25 02:17:28;;;;;;;24.40;15.52;;;3.60;1.00;;;;;;6135998;23;21041;-81
2023/01/25 02:20:01;;;;;;;25.30;16.75;;;3.60;1.00;;;;;;6132513;23;20201;-81
2023/01/25 02:22:36;;;;;;;25.10;15.40;;;3.60;1.00;;;;;;6135227;23;20219;-81
2023/01/25 02:25:07;;;;;;;24.52;16.45;;;3.50;1.00;;;;;;6120519;23;20198;-80
2023/01/25 02:27:38;;;;;;;23.98;17.00;;;3.50;1.00;;;;;;6123040;23;20246;-80
2023/01/25 02:30:09;;;;;;;23.90;16.40;;;3.40;1.00;;;;;;6135344;23;20257;-81
2023/01/25 02:32:39;;;;;;;24.13;16.52;;;3.40;1.00;;;;;;6134940;23;20223;-81
2023/01/25 02:35:07;;;;;;;24.27;16.17;;;3.50;1.00;;;;;;6136071;23;20291;-83
2023/01/25 02:37:34;;;;;;;29.42;16.58;;;3.50;1.00;;;;;;6134578;23;20223;-83
2023/01/25 02:40:01;;;;;;;27.95;17.77;;;3.50;1.00;;;;;;6134349;23;20265;-81
2023/01/25 02:42:34;;;;;;;26.17;17.52;;;3.50;1.00;;;;;;6136125;23;20215;-85
2023/01/25 02:45:01;;;;;;;24.83;16.55;;;3.50;1.00;;;;;;6132533;23;20218;-82
2023/01/25 02:47:28;;;;;;;26.10;16.80;;;3.50;1.00;;;;;;6136535;23;20257;-83
2023/01/25 02:50:00;;;;;;;27.95;18.33;;;3.50;1.00;;;;;;6133197;23;20262;-82
2023/01/25 02:52:29;;;;;;;26.88;17.85;;;3.50;1.00;;;;;;6135683;23;20222;-81
2023/01/25 02:55:02;;;;;;;25.10;16.75;;;3.50;1.00;;;;;;6100803;23;20216;-82
2023/01/25 02:57:37;;;;;;;25.25;16.35;;;3.40;1.00;;;;;;6131565;23;20196;-81
2023/01/25 03:00:05;;;;;;;27.48;19.13;;;3.40;1.00;;;;;;6139312;23;20205;-81
2023/01/25 03:02:32;;;;;;;29.63;19.13;;;3.50;1.00;;;;;;6165754;23;20218;-82
2023/01/25 03:05:01;;;;;;;28.30;17.40;;;3.60;1.00;;;;;;6162194;23;20217;-81
2023/01/25 03:07:28;;;;;;;28.90;18.02;;;3.60;1.00;;;;;;6161432;23;20238;-86
2023/01/25 03:09:55;;;;;;;29.52;18.70;;;3.60;1.00;;;;;;6160797;23;20263;-81
2023/01/25 03:12:22;;;;;;;25.85;15.65;;;3.60;1.00;;;;;;6164296;23;20207;-82
2023/01/25 03:14:51;;;;;;;26.50;16.67;;;3.50;1.00;;;;;;6157688;23;20211;-85
2023/01/25 03:17:18;;;;;;;27.30;16.60;;;3.50;1.00;;;;;;6163913;23;20608;-82
2023/01/25 03:19:45;;;;;;;28.55;16.90;;;3.50;1.00;;;;;;6163960;23;20215;-80
2023/01/25 03:22:12;;;;;;;28.90;17.42;;;3.50;1.00;;;;;;6165748;23;20266;-81
2023/01/25 03:24:39;;;;;;;24.80;16.38;;;3.50;1.00;;;;;;6164061;23;20684;-81
2023/01/25 03:27:13;;;;;;;27.27;17.58;;;3.60;1.00;;;;;;6164511;23;20207;-82
2023/01/25 03:29:46;;;;;;;29.45;17.15;;;3.50;1.00;;;;;;6163295;23;20222;-82
2023/01/25 03:32:14;;;;;;;25.73;17.00;;;3.50;1.00;;;;;;6165373;23;20199;-81
2023/01/25 03:34:41;;;;;;;23.85;17.05;;;3.40;1.00;;;;;;6165360;23;20214;-81
2023/01/25 03:37:10;;;;;;;31.75;19.20;;;3.40;1.00;;;;;;6166175;23;20613;-84
2023/01/25 03:39:40;;;;;;;32.47;19.88;;;3.50;1.00;;;;;;6164223;23;20207;-82
2023/01/25 03:42:07;;;;;;;26.27;16.60;;;3.50;1.00;;;;;;6163943;23;20940;-81
2023/01/25 03:44:34;;;;;;;27.05;18.58;;;3.60;1.00;;;;;;6165140;23;20210;-81
2023/01/25 03:47:02;;;;;;;29.35;18.60;;;3.60;1.00;;;;;;6161927;23;20219;-82
2023/01/25 03:49:31;;;;;;;24.88;17.65;;;3.70;1.00;;;;;;6163458;23;20782;-83
2023/01/25 03:52:04;;;;;;;24.60;16.52;;;3.60;1.00;;;;;;6162125;23;20278;-81
2023/01/25 03:54:33;;;;;;;30.08;18.08;;;3.60;1.00;;;;;;6166382;23;20937;-82
2023/01/25 03:57:02;;;;;;;27.23;17.90;;;3.50;1.00;;;;;;6160589;23;20846;-83
2023/01/25 03:59:35;;;;;;;31.13;20.85;;;3.50;1.00;;;;;;6163758;23;20619;-82
2023/01/25 04:02:02;;;;;;;26.92;18.52;;;3.50;1.00;;;;;;6163258;23;20218;-81
2023/01/25 04:04:31;;;;;;;28.80;17.13;;;3.50;1.00;;;;;;6164869;23;20218;-83
2023/01/25 04:07:00;;;;;;;28.95;20.38;;;3.60;1.00;;;;;;6162781;23;20508;-82
2023/01/25 04:09:27;;;;;;;27.95;18.77;;;3.60;1.00;;;;;;6165239;23;20211;-81
2023/01/25 04:11:53;;;;;;;27.92;18.02;;;3.50;1.00;;;;;;6164526;23;20211;-81
2023/01/25 04:14:21;;;;;;;25.85;17.63;;;3.40;1.00;;;;;;6164752;23;20978;-81
2023/01/25 04:16:52;;;;;;;28.90;18.40;;;3.30;1.00;;;;;;6162641;23;20210;-81
2023/01/25 04:19:25;;;;;;;31.50;19.27;;;3.40;1.00;;;;;;6103821;23;20669;-80
2023/01/25 04:21:54;;;;;;;27.10;18.58;;;3.40;1.00;;;;;;6165595;23;20888;-81
2023/01/25 04:24:21;;;;;;;27.98;18.83;;;3.40;1.00;;;;;;6163398;23;20606;-81
2023/01/25 04:26:54;;;;;;;25.23;16.65;;;3.50;1.00;;;;;;6162358;23;20245;-81
2023/01/25 04:29:22;;;;;;;23.45;14.70;;;3.50;1.00;;;;;;6163497;23;20269;-81
2023/01/25 04:34:44;;;;;;;27.55;16.75;;;3.60;1.00;;;;;;6159244;23;20218;-82
2023/01/25 04:37:13;;;;;;;25.77;16.63;;;3.40;1.00;;;;;;6160890;23;20211;-81
2023/01/25 04:39:42;;;;;;;24.48;15.40;;;3.40;1.00;;;;;;6163776;23;20840;-81
2023/01/25 04:42:09;;;;;;;19.65;12.55;;;3.40;1.00;;;;;;6166378;23;21031;-81
2023/01/25 04:44:36;;;;;;;23.15;14.68;;;3.40;1.00;;;;;;6164695;23;20207;-81
2023/01/25 04:47:03;;;;;;;23.15;13.68;;;3.40;1.00;;;;;;6161819;23;20870;-82
2023/01/25 04:49:33;;;;;;;17.70;11.23;;;3.40;1.00;;;;;;6162560;23;20250;-82
2023/01/25 04:52:02;;;;;;;21.13;12.60;;;3.50;1.00;;;;;;6160683;23;20322;-84
2023/01/25 04:54:38;;;;;;;19.08;11.13;;;3.50;1.00;;;;;;6162442;23;20244;-82
2023/01/25 04:57:05;;;;;;;20.67;12.57;;;3.40;1.00;;;;;;6147415;23;20215;-85
2023/01/25 04:59:34;;;;;;;19.35;12.52;;;3.40;1.00;;;;;;6162926;23;20923;-87
2023/01/25 05:02:05;;;;;;;19.92;12.65;;;3.40;1.00;;;;;;6148836;23;20878;-81
2023/01/25 05:04:35;;;;;;;23.33;13.05;;;3.40;1.00;;;;;;6162801;23;20215;-82
2023/01/25 05:07:04;;;;;;;22.73;13.63;;;3.40;1.00;;;;;;6161477;23;20215;-85
2023/01/25 05:09:35;;;;;;;27.83;15.18;;;3.50;1.00;;;;;;6164610;23;20218;-81
2023/01/25 05:12:10;;;;;;;22.60;14.30;;;3.50;1.00;;;;;;6158856;23;20207;-80
2023/01/25 05:14:45;;;;;;;22.35;14.73;;;3.50;1.00;;;;;;6163550;23;21019;-81
2023/01/25 05:17:15;;;;;;;20.90;13.07;;;3.60;1.00;;;;;;6161341;23;20214;-85
2023/01/25 05:19:44;;;;;;;16.88;11.27;;;3.60;1.00;;;;;;6162918;23;20214;-81
2023/01/25 05:28:15;;;;;;;24.92;15.20;;;3.60;1.00;;;;;;6093738;23;20225;-85
2023/01/25 05:30:55;;;;;;;;;;;;;;;;;;;;;
2023/01/25 05:33:33;;;;;;;19.38;12.40;;;3.60;1.00;;;;;;6149756;23;41447;-86
2023/01/25 05:36:12;;;;;;;21.25;12.52;;;3.60;1.00;;;;;;6145921;23;20289;-86
2023/01/25 05:38:43;;;;;;;19.98;13.70;;;3.60;1.00;;;;;;6134629;23;20698;-81
2023/01/25 05:41:24;;;;;;;;;;;;;;;;;;;;;
2023/01/25 05:43:53;;;;;;;22.73;14.05;;;3.60;1.00;;;;;;6143814;23;40841;-81
2023/01/25 05:46:27;;;;;;;17.90;12.77;;;3.50;1.00;;;;;;6163801;23;20217;-81
2023/01/25 05:48:55;;;;;;;20.95;13.70;;;3.50;1.00;;;;;;6134950;23;20217;-81
2023/01/25 05:51:35;;;;;;;23.27;12.73;;;3.50;1.00;;;;;;6147082;23;20267;-83
2023/01/25 05:54:15;;;;;;;17.23;9.90;;;3.60;1.00;;;;;;6148418;23;20215;-82
2023/01/25 05:56:44;;;;;;;17.90;10.30;;;3.70;1.00;;;;;;6164268;23;20214;-83
2023/01/25 05:59:13;;;;;;;20.15;11.85;;;3.60;1.00;;;;;;6136859;23;20660;-82
2023/01/25 06:01:43;;;;;;;18.23;10.45;;;3.50;1.00;;;;;;6145116;23;20214;-80
2023/01/25 06:04:24;;;;;;;17.52;9.45;;;3.40;1.00;;;;;;6146659;23;20956;-81
2023/01/25 06:09:43;;;;;;;17.02;10.77;;;3.60;1.00;;;;;;6162540;23;20221;-81
2023/01/25 06:12:35;;;;;;;21.92;11.20;;;3.60;1.00;;;;;;6150898;23;20684;-79
2023/01/25 06:15:10;;;;;;;16.52;9.68;;;3.40;1.00;;;;;;6164128;23;20203;-79
2023/01/25 06:17:46;;;;;;;18.50;11.40;;;3.40;1.00;;;;;;6165129;23;20225;-83
2023/01/25 06:20:23;;;;;;;16.80;10.13;;;3.40;1.00;;;;;;6166511;23;20202;-81
2023/01/25 06:22:56;;;;;;;19.88;10.98;;;3.30;1.00;;;;;;6163472;23;20674;-82
2023/01/25 06:25:23;;;;;;;22.75;12.57;;;3.30;1.00;;;;;;6163597;23;20262;-81
2023/01/25 06:30:55;;;;;;;18.15;10.23;;;3.30;1.00;;;;;;6149357;23;20317;-80
2023/01/25 06:33:24;;;;;;;22.65;11.27;;;3.30;1.00;;;;;;6165345;23;20211;-80
2023/01/25 06:35:53;;;;;;;17.75;11.20;;;3.30;1.00;;;;;;6160590;23;20227;-81
2023/01/25 06:38:46;;;;;;;16.70;11.20;;;3.30;1.00;;;;;;6148617;23;20270;-82
2023/01/25 06:41:14;;;;;;;20.17;12.50;;;3.40;1.00;;;;;;6147964;23;20237;-80
2023/01/25 06:43:42;;;;;;;20.33;11.05;;;3.40;1.00;;;;;;6148770;23;20218;-81
2023/01/25 06:46:14;;;;;;;20.50;12.35;;;3.40;1.00;;;;;;6152031;23;20330;-81
2023/01/25 06:48:52;;;;;;;23.48;13.50;;;3.40;1.00;;;;;;6138094;23;20214;-80
2023/01/25 06:51:24;;;;;;;22.08;12.45;;;3.40;1.00;;;;;;6163450;23;20230;-81
2023/01/25 06:53:55;;;;;;;21.65;12.13;;;3.40;1.00;;;;;;6164706;23;20259;-80
2023/01/25 06:56:26;;;;;;;20.40;12.55;;;3.50;1.00;;;;;;6163571;23;20219;-80
2023/01/25 06:58:53;;;;;;;20.50;13.05;;;3.50;1.00;;;;;;6137846;23;20230;-82
2023/01/25 07:01:25;;;;;;;19.40;11.90;;;3.40;1.00;;;;;;6160982;23;20282;-84
2023/01/25 07:06:45;;;;;;;19.52;10.55;;;3.20;1.00;;;;;;6148844;23;20195;-83
2023/01/25 07:09:16;;;;;;;18.08;10.15;;;3.10;1.00;;;;;;6153175;23;20218;-83
2023/01/25 07:11:45;;;;;;;16.80;9.90;;;2.90;1.00;;;;;;6165377;23;20219;-81
2023/01/25 07:14:14;;;;;;;20.48;10.45;;;2.90;1.00;;;;;;6167231;23;20303;-82
2023/01/25 07:16:42;;;;;;;18.50;10.32;;;2.90;1.00;;;;;;6162807;23;20211;-82
2023/01/25 07:19:13;;;;;;;18.25;10.55;;;3.00;1.00;;;;;;6149692;23;20245;-82
2023/01/25 07:21:42;;;;;;;17.80;10.38;;;3.00;1.00;;;;;;6165842;23;20274;-81
2023/01/25 07:24:14;;;;;;;18.23;11.18;;;3.00;1.00;;;;;;6166746;23;20216;-81
2023/01/25 07:27:03;;;;;;;20.65;12.55;;;2.90;1.00;;;;;;6167999;23;20386;-87
2023/01/25 07:29:43;;;;;;;19.17;11.68;;;2.80;1.00;;;;;;6163754;23;20219;-83
2023/01/25 07:32:23;;;;;;;19.25;11.82;;;2.80;1.00;;;;;;6148951;23;20222;-82
2023/01/25 07:35:23;;;;;;;17.92;10.65;;;2.70;1.00;;;;;;6116732;23;20207;-84
2023/01/25 07:37:55;;;;;;;19.95;11.10;;;2.80;1.00;;;;;;5976276;23;20592;-84
2023/01/25 07:40:25;;;;;;;22.98;12.82;;;2.70;1.00;;;;;;5986396;23;20214;-84
2023/01/25 07:43:13;;;;;;;24.15;14.18;;;2.70;1.00;;;;;;6004227;23;20197;-83
2023/01/25 07:48:16;;;;;;;24.05;13.75;;;2.80;1.00;;;;;;6148219;23;20210;-80
2023/01/25 07:51:10;;;;;;;26.88;15.05;;;2.80;1.00;;;;;;6131720;23;20250;-83
2023/01/25 07:54:05;;;;;;;25.13;14.63;;;2.80;1.00;;;;;;6165101;23;20228;-84
2023/01/25 08:02:51;;;;;;;25.02;14.55;;;3.00;1.00;;;;;;6149778;23;20215;-83
2023/01/25 08:12:36;;;;;;;;;;;;;;;;;;;;;
2023/01/25 08:15:53;;;;;;;28.70;17.55;;;2.80;1.00;;;;;;6043129;23;20335;-84
2023/01/25 08:18:24;;;;;;;27.02;15.52;;;2.70;1.00;;;;;;6060202;23;20210;-83
2023/01/25 08:27:34;;;;;;;32.05;18.05;;;2.90;1.00;;;;;;5991024;23;20251;-83
2023/01/25 08:30:49;;;;;;;29.95;18.77;;;2.80;1.00;;;;;;5991131;23;20213;-83
2023/01/25 08:33:16;;;;;;;33.67;19.10;;;2.70;1.00;;;;;;6133918;23;20266;-80
2023/01/25 08:35:54;;;;;;;34.63;19.35;;;2.70;1.00;;;;;;6151296;23;20270;-79
2023/01/25 08:38:24;;;;;;;34.60;21.63;;;2.80;1.00;;;;;;6161832;23;20207;-81
2023/01/25 08:40:53;;;;;;;37.22;22.40;;;2.80;1.00;;;;;;6159995;23;20222;-82
2023/01/25 08:43:21;;;;;;;34.35;20.30;;;2.80;1.00;;;;;;6163779;23;20766;-81
2023/01/25 08:45:59;;;;;;;37.92;20.40;;;2.90;1.00;;;;;;6164004;23;20210;-84
2023/01/25 08:48:34;;;;;;;36.55;20.23;;;2.90;1.00;;;;;;6149647;23;20238;-86
2023/01/25 08:51:04;;;;;;;32.90;18.60;;;2.90;1.00;;;;;;6161945;23;20218;-80
2023/01/25 08:53:33;;;;;;;35.55;20.65;;;2.80;1.00;;;;;;6141744;23;20215;-85
2023/01/25 09:07:04;;;;;;;37.25;21.77;;;2.70;1.00;;;;;;6005197;23;20239;-83
2023/01/25 09:24:16;;;;;;;35.95;21.10;;;2.60;1.00;;;;;;6147714;22;20218;-86
2023/01/25 09:27:23;;;;;;;;;;;;;;;;;;;;;
2023/01/25 09:30:57;;;;;;;;;;;;;;;;;;;;;
2023/01/25 09:43:55;;;;;;;33.65;18.52;;;2.70;1.00;;;;;;6062771;23;20211;-83
2023/01/25 10:00:43;;;;;;;29.67;17.80;;;2.90;1.00;;;;;;6159175;22;3042356;-81
2023/01/25 10:10:14;;;;;;;30.83;17.27;;;2.70;1.00;;;;;;5978297;23;20199;-85
2023/01/25 10:35:06;;;;;;;49.50;39.00;;;2.90;1.00;;;;;;6233182;22;20203;-85
2023/01/25 10:47:20;;;;;;;32.83;19.23;;;2.70;1.00;;;;;;6177959;23;20209;-83
2023/01/25 10:49:55;;;;;;;31.75;17.38;;;2.70;1.00;;;;;;6233953;22;20208;-85
2023/01/25 10:52:46;;;;;;;32.50;20.33;;;2.60;1.00;;;;;;6236688;22;20218;-83
2023/01/25 10:55:25;;;;;;;30.38;18.38;;;2.70;1.00;;;;;;6199609;22;20205;-85
2023/01/25 11:00:56;;;;;;;28.50;17.15;;;2.70;1.00;;;;;;6160443;23;20722;-85
2023/01/25 11:03:36;;;;;;;25.58;15.65;;;2.70;1.00;;;;;;6147604;23;20214;-85
2023/01/25 11:06:35;;;;;;;25.45;15.20;;;2.60;1.00;;;;;;6212700;22;20308;-84
2023/01/25 11:09:23;;;;;;;28.98;16.77;;;2.50;1.00;;;;;;6258305;22;20204;-85
2023/01/25 11:12:16;;;;;;;29.08;17.73;;;2.40;1.00;;;;;;6232290;22;20210;-87
2023/01/25 11:15:13;;;;;;;30.73;17.88;;;2.50;1.00;;;;;;6233344;22;20213;-84
2023/01/25 11:17:43;;;;;;;26.67;15.48;;;2.50;1.00;;;;;;6239781;22;20201;-85
2023/01/25 11:20:27;;;;;;;30.10;18.83;;;2.50;1.00;;;;;;6234083;22;20201;-86
2023/01/25 11:23:00;;;;;;;32.33;18.38;;;2.40;1.00;;;;;;6235353;22;20193;-81
2023/01/25 11:25:34;;;;;;;32.75;19.70;;;2.40;1.00;;;;;;6226050;22;21041;-83
2023/01/25 11:28:24;;;;;;;32.30;20.27;;;2.50;1.00;;;;;;6228815;22;20896;-85
2023/01/25 11:30:55;;;;;;;33.92;20.52;;;2.60;1.00;;;;;;6261932;22;20234;-84
2023/01/25 11:33:25;;;;;;;40.45;23.48;;;2.50;1.00;;;;;;6260579;22;20213;-86
2023/01/25 11:39:37;;;;;;;30.63;19.00;;;2.60;1.00;;;;;;6224257;22;20213;-86
2023/01/25 11:42:20;;;;;;;32.75;20.33;;;2.70;1.00;;;;;;6254780;22;20276;-84
2023/01/25 11:45:15;;;;;;;35.72;18.65;;;2.80;1.00;;;;;;6238930;22;20215;-84
2023/01/25 11:48:01;;;;;;;36.20;21.98;;;2.70;1.00;;;;;;6227187;22;20209;-86
2023/01/25 11:50:38;;;;;;;29.63;19.48;;;2.70;1.00;;;;;;6233321;22;20197;-85
2023/01/25 11:53:42;;;;;;;33.85;19.77;;;2.70;1.00;;;;;;6239490;22;20213;-85
2023/01/25 11:56:27;;;;;;;40.78;21.48;;;2.70;1.00;;;;;;6256191;22;20216;-82
2023/01/25 11:59:07;;;;;;;30.15;18.55;;;2.70;1.00;;;;;;6255937;22;20209;-84
2023/01/25 12:01:45;;;;;;;38.28;22.58;;;2.70;1.00;;;;;;6228734;22;20884;-84
2023/01/25 12:04:56;;;;;;;33.40;19.80;;;2.80;1.00;;;;;;6226654;22;20281;-84
2023/01/25 12:07:56;;;;;;;35.20;20.20;;;2.70;1.00;;;;;;6228153;22;20211;-83
2023/01/25 12:10:54;;;;;;;39.35;20.23;;;2.70;1.00;;;;;;6231279;22;20205;-82
2023/01/25 12:34:37;;;;;;;40.40;24.10;;;2.80;1.00;;;;;;6034137;22;20197;-85
2023/01/25 12:52:25;;;;;;;52.08;30.75;;;2.90;1.00;;;;;;6237714;22;20206;-85
2023/01/25 12:55:27;;;;;;;34.05;21.70;;;2.90;1.00;;;;;;6103276;23;20214;-85
2023/01/25 12:58:01;;;;;;;42.70;22.95;;;2.90;1.00;;;;;;6102852;23;20315;-83
2023/01/25 13:00:47;;;;;;;42.90;22.58;;;2.80;1.00;;;;;;6219841;22;20214;-87
2023/01/25 13:03:36;;;;;;;36.95;22.20;;;2.80;1.00;;;;;;6262504;22;20201;-85
2023/01/25 13:06:14;;;;;;;39.85;24.20;;;2.70;1.00;;;;;;6236050;22;20234;-86
2023/01/25 13:09:07;;;;;;;;;;;;;;;;;;;;;
2023/01/25 13:11:47;;;;;;;41.72;23.40;;;2.80;1.00;;;;;;6211271;22;50474;-84
2023/01/25 13:14:36;;;;;;;37.13;22.80;;;2.80;1.00;;;;;;6249740;22;20680;-86
2023/01/25 13:17:55;;;;;;;41.90;23.98;;;2.80;1.00;;;;;;6217175;22;20209;-85
2023/01/25 13:21:00;;;;;;;41.10;24.73;;;2.70;1.00;;;;;;6236094;22;20213;-83
2023/01/25 13:27:06;;;;;;;39.05;22.42;;;2.60;1.00;;;;;;6236620;22;20246;-84
2023/01/25 13:39:52;;;;;;;36.13;18.80;;;2.40;1.00;;;;;;6078592;23;20996;-86
2023/01/25 13:45:34;;;;;;;30.30;16.77;;;2.10;1.00;;;;;;6145072;23;20215;-87
2023/01/25 13:48:15;;;;;;;44.40;21.02;;;2.10;1.00;;;;;;6170872;23;20270;-85
2023/01/25 13:50:54;;;;;;;32.97;19.02;;;2.10;1.00;;;;;;6172033;23;20277;-86
2023/01/25 13:53:23;;;;;;;34.95;19.83;;;2.10;1.00;;;;;;6170690;23;20211;-84
2023/01/25 13:56:02;;;;;;;35.75;21.60;;;2.10;1.00;;;;;;6201675;22;20208;-86
2023/01/25 13:58:54;;;;;;;34.75;19.90;;;2.10;1.00;;;;;;6263647;22;20291;-83
2023/01/25 14:01:44;;;;;;;37.90;20.58;;;2.10;1.00;;;;;;6265861;22;20224;-83
2023/01/25 14:04:27;;;;;;;36.20;20.48;;;2.10;1.00;;;;;;6264784;22;20235;-85
2023/01/25 14:09:58;;;;;;;33.50;18.80;;;2.20;1.00;;;;;;6262006;22;20217;-83
2023/01/25 14:12:47;;;;;;;32.17;19.17;;;2.30;1.00;;;;;;6236858;22;20228;-85
2023/01/25 14:15:38;;;;;;;29.90;17.65;;;2.20;1.00;;;;;;6256021;22;20556;-84
2023/01/25 14:24:10;;;;;;;34.38;17.58;;;2.00;1.00;;;;;;6263337;22;20371;-85
2023/01/25 14:26:48;;;;;;;29.02;15.05;;;2.00;1.00;;;;;;6249338;22;20224;-86
2023/01/25 14:29:27;;;;;;;33.33;18.10;;;2.10;1.00;;;;;;6272893;22;20212;-87
2023/01/25 14:31:58;;;;;;;36.97;19.80;;;2.10;1.00;;;;;;6240925;22;20240;-85
2023/01/25 14:35:07;;;;;;;33.10;19.00;;;2.10;1.00;;;;;;6221235;22;20286;-85
2023/01/25 14:41:13;;;;;;;41.58;19.02;;;2.10;1.00;;;;;;6172458;22;20265;-84
2023/01/25 14:43:44;;;;;;;33.28;18.60;;;2.10;1.00;;;;;;6235911;22;20221;-85
2023/01/25 14:46:25;;;;;;;36.38;19.48;;;2.00;1.00;;;;;;6260851;22;20217;-84
2023/01/25 14:49:25;;;;;;;34.08;18.30;;;1.90;1.00;;;;;;6244033;22;20197;-85
2023/01/25 14:57:35;;;;;;;33.78;19.30;;;2.00;1.00;;;;;;6191795;22;20202;-83
2023/01/25 15:00:30;;;;;;;35.00;20.55;;;2.00;1.00;;;;;;6181206;23;20215;-84
2023/01/25 15:03:25;;;;;;;38.50;20.98;;;1.90;1.00;;;;;;6183983;22;20214;-84
2023/01/25 15:06:16;;;;;;;40.30;20.45;;;1.90;1.00;;;;;;6181078;23;20207;-85
2023/01/25 15:08:46;;;;;;;37.67;20.85;;;2.00;1.00;;;;;;6174405;23;20913;-83
2023/01/25 15:11:47;;;;;;;37.75;21.65;;;2.10;1.00;;;;;;6188619;22;20226;-86
2023/01/25 15:14:27;;;;;;;35.08;19.38;;;2.20;1.00;;;;;;6138702;23;20199;-85
2023/01/25 15:16:56;;;;;;;37.00;22.52;;;2.20;1.00;;;;;;6141797;23;20235;-81
2023/01/25 15:22:16;;;;;;;35.30;20.50;;;2.30;1.00;;;;;;6185497;22;20215;-82
2023/01/25 15:24:45;;;;;;;41.47;23.85;;;2.30;1.00;;;;;;6180786;23;20241;-84
2023/01/25 15:27:25;;;;;;;34.28;18.00;;;2.30;1.00;;;;;;6178860;23;20211;-83
2023/01/25 15:29:59;;;;;;;33.08;18.58;;;2.30;1.00;;;;;;6186094;22;20285;-84
2023/01/25 15:32:38;;;;;;;35.85;19.90;;;2.20;1.00;;;;;;6191132;22;21276;-86
2023/01/25 15:35:18;;;;;;;33.63;17.98;;;2.10;1.00;;;;;;6176001;23;20205;-85
2023/01/25 15:37:46;;;;;;;32.13;17.13;;;2.00;1.00;;;;;;6174195;23;21000;-83
2023/01/25 15:40:16;;;;;;;34.45;17.58;;;2.00;1.00;;;;;;6185090;22;20242;-83
2023/01/25 15:42:55;;;;;;;30.02;17.42;;;2.00;1.00;;;;;;6175055;23;20313;-84
2023/01/25 15:45:36;;;;;;;37.78;18.52;;;2.00;1.00;;;;;;6194410;22;20209;-82
2023/01/25 15:48:16;;;;;;;34.67;16.65;;;1.90;1.00;;;;;;6232616;22;20209;-82
2023/01/25 15:50:48;;;;;;;34.80;17.70;;;1.90;1.00;;;;;;6233279;22;20216;-86
2023/01/25 15:53:18;;;;;;;30.42;17.88;;;1.90;1.00;;;;;;6233162;22;20205;-84
2023/01/25 15:55:57;;;;;;;38.60;20.75;;;1.90;1.00;;;;;;6233038;22;20249;-82
2023/01/25 15:58:26;;;;;;;31.42;16.88;;;2.00;1.00;;;;;;6229652;22;20210;-82
2023/01/25 16:01:00;;;;;;;35.92;20.50;;;2.00;1.00;;;;;;6233151;22;20217;-84
2023/01/25 16:03:44;;;;;;;31.80;17.08;;;2.10;1.00;;;;;;6232723;22;20229;-85
2023/01/25 16:06:39;;;;;;;;;;;;;;;;;;;;;
2023/01/25 16:09:25;;;;;;;32.70;16.70;;;2.00;1.00;;;;;;6224780;22;39515;-84
2023/01/25 16:12:28;;;;;;;31.55;16.80;;;2.00;1.00;;;;;;6254906;22;20208;-84
2023/01/25 16:15:06;;;;;;;33.05;17.85;;;2.00;1.00;;;;;;6250688;22;20205;-85
2023/01/25 16:17:35;;;;;;;34.03;19.70;;;2.00;1.00;;;;;;6252223;22;20246;-84
2023/01/25 16:23:16;;;;;;;30.60;16.80;;;2.00;1.00;;;;;;6253408;22;20303;-84
2023/01/25 16:25:58;;;;;;;;;;;;;;;;;;;;;
2023/01/25 16:28:35;;;;;;;28.40;14.07;;;2.00;1.00;;;;;;6256401;22;39628;-82
2023/01/25 16:31:28;;;;;;;;;;;;;;;;;;;;;
2023/01/25 16:33:57;;;;;;;30.88;15.88;;;1.90;1.00;;;;;;6210261;22;51685;-83
2023/01/25 16:36:28;;;;;;;28.02;13.95;;;1.80;1.00;;;;;;6257954;22;20262;-83
2023/01/25 16:39:18;;;;;;;30.48;14.40;;;1.70;1.00;;;;;;6256679;22;20209;-84
2023/01/25 16:41:46;;;;;;;30.58;14.40;;;1.60;1.00;;;;;;6249075;22;20255;-84
2023/01/25 16:44:35;;;;;;;30.00;16.40;;;1.60;1.00;;;;;;6259272;22;20271;-83
2023/01/25 16:47:07;;;;;;;27.42;14.70;;;1.60;1.00;;;;;;6258127;22;20212;-83
2023/01/25 16:49:36;;;;;;;29.75;16.15;;;1.70;1.00;;;;;;6227599;22;20300;-84
2023/01/25 16:52:06;;;;;;;31.00;15.13;;;1.80;1.00;;;;;;6230018;22;20309;-85
2023/01/25 16:54:37;;;;;;;28.52;14.70;;;1.80;1.00;;;;;;6248241;22;20988;-82
2023/01/25 16:57:08;;;;;;;30.45;16.65;;;1.80;1.00;;;;;;6247820;22;20709;-85
2023/01/25 16:59:41;;;;;;;29.67;15.52;;;1.80;1.00;;;;;;6244098;22;20895;-85
2023/01/25 17:02:14;;;;;;;35.42;17.65;;;1.80;1.00;;;;;;6246586;22;20254;-83
2023/01/25 17:04:47;;;;;;;28.27;14.70;;;1.80;1.00;;;;;;6228779;22;20225;-85
2023/01/25 17:07:25;;;;;;;34.30;16.95;;;1.80;1.00;;;;;;6246947;22;20213;-84
2023/01/25 17:10:06;;;;;;;;;;;;;;;;;;;;;
2023/01/25 17:12:48;;;;;;;31.90;18.58;;;1.80;1.00;;;;;;6231201;22;51969;-83
2023/01/25 17:15:18;;;;;;;31.40;16.05;;;1.80;1.00;;;;;;6250841;22;20260;-82
2023/01/25 17:17:45;;;;;;;31.38;16.67;;;1.80;1.00;;;;;;6261995;22;20217;-82
2023/01/25 17:20:17;;;;;;;31.48;16.65;;;1.90;1.00;;;;;;6260338;22;20571;-82